sensor_id;sensor_type;location;lat;lon;timestamp;pressure;altitude;pressure_sealevel;temperature;humidity
1207;BME280;593;53.184;8.216;2023-03-14T00:00:14;98382.41;;;12.65;99.48
1207;BME280;593;53.184;8.216;2023-03-14T00:02:40;98374.56;;;12.63;99.59
1207;BME280;593;53.184;8.216;2023-03-14T00:05:06;98365.09;;;12.57;100.00
1207;BME280;593;53.184;8.216;2023-03-14T00:07:36;98368.69;;;12.61;99.53
1207;BME280;593;53.184;8.216;2023-03-14T00:10:05;98364.38;;;12.60;100.00
1207;BME280;593;53.184;8.216;2023-03-14T00:12:31;98357.59;;;12.54;100.00
1207;BME280;593;53.184;8.216;2023-03-14T00:14:57;98364.72;;;12.59;100.00
1207;BME280;593;53.184;8.216;2023-03-14T00:17:22;98376.16;;;12.64;100.00
1207;BME280;593;53.184;8.216;2023-03-14T00:19:48;98358.56;;;12.46;100.00
1207;BME280;593;53.184;8.216;2023-03-14T00:22:17;98360.22;;;12.51;100.00
1207;BME280;593;53.184;8.216;2023-03-14T00:24:42;98353.28;;;12.53;100.00
1207;BME280;593;53.184;8.216;2023-03-14T00:27:08;98348.72;;;12.57;100.00
1207;BME280;593;53.184;8.216;2023-03-14T00:29:33;98351.63;;;12.49;100.00
1207;BME280;593;53.184;8.216;2023-03-14T00:31:58;98355.47;;;12.48;100.00
1207;BME280;593;53.184;8.216;2023-03-14T00:34:28;98363.84;;;12.55;100.00
1207;BME280;593;53.184;8.216;2023-03-14T00:36:54;98375.09;;;12.53;100.00
1207;BME280;593;53.184;8.216;2023-03-14T00:39:19;98371.50;;;12.49;100.00
1207;BME280;593;53.184;8.216;2023-03-14T00:41:44;98372.72;;;12.52;100.00
1207;BME280;593;53.184;8.216;2023-03-14T00:44:10;98367.72;;;12.54;100.00
1207;BME280;593;53.184;8.216;2023-03-14T00:46:35;98358.75;;;12.53;100.00
1207;BME280;593;53.184;8.216;2023-03-14T00:49:00;98368.16;;;12.56;100.00
1207;BME280;593;53.184;8.216;2023-03-14T00:51:26;98361.63;;;12.60;100.00
1207;BME280;593;53.184;8.216;2023-03-14T00:53:51;98354.34;;;12.64;100.00
1207;BME280;593;53.184;8.216;2023-03-14T00:56:16;98347.94;;;12.57;100.00
1207;BME280;593;53.184;8.216;2023-03-14T00:58:42;98329.44;;;12.50;100.00
1207;BME280;593;53.184;8.216;2023-03-14T01:01:14;98337.72;;;12.54;100.00
1207;BME280;593;53.184;8.216;2023-03-14T01:03:40;98338.94;;;12.56;100.00
1207;BME280;593;53.184;8.216;2023-03-14T01:08:38;98331.84;;;12.67;100.00
1207;BME280;593;53.184;8.216;2023-03-14T01:11:11;98334.72;;;12.74;100.00
1207;BME280;593;53.184;8.216;2023-03-14T01:13:38;98325.59;;;12.67;100.00
1207;BME280;593;53.184;8.216;2023-03-14T01:16:05;98317.03;;;12.68;100.00
1207;BME280;593;53.184;8.216;2023-03-14T01:18:32;98321.41;;;12.73;100.00
1207;BME280;593;53.184;8.216;2023-03-14T01:20:58;98325.03;;;12.77;100.00
1207;BME280;593;53.184;8.216;2023-03-14T01:23:24;98316.16;;;12.80;100.00
1207;BME280;593;53.184;8.216;2023-03-14T01:25:49;98288.88;;;12.80;100.00
1207;BME280;593;53.184;8.216;2023-03-14T01:28:15;98290.09;;;12.82;100.00
1207;BME280;593;53.184;8.216;2023-03-14T01:30:41;98269.31;;;12.78;100.00
1207;BME280;593;53.184;8.216;2023-03-14T01:33:06;98269.16;;;12.71;100.00
1207;BME280;593;53.184;8.216;2023-03-14T01:35:31;98277.59;;;12.81;100.00
1207;BME280;593;53.184;8.216;2023-03-14T01:37:57;98289.75;;;12.84;100.00
1207;BME280;593;53.184;8.216;2023-03-14T01:40:22;98291.75;;;12.87;100.00
1207;BME280;593;53.184;8.216;2023-03-14T01:42:57;98291.59;;;12.80;100.00
1207;BME280;593;53.184;8.216;2023-03-14T01:48:27;98281.19;;;12.85;100.00
1207;BME280;593;53.184;8.216;2023-03-14T01:50:54;98269.94;;;12.87;100.00
1207;BME280;593;53.184;8.216;2023-03-14T01:53:19;98273.16;;;12.93;100.00
1207;BME280;593;53.184;8.216;2023-03-14T01:55:47;98252.13;;;12.93;100.00
1207;BME280;593;53.184;8.216;2023-03-14T01:58:14;98250.91;;;12.91;100.00
1207;BME280;593;53.184;8.216;2023-03-14T02:00:41;98241.72;;;12.99;100.00
1207;BME280;593;53.184;8.216;2023-03-14T02:03:11;98237.06;;;12.99;100.00
1207;BME280;593;53.184;8.216;2023-03-14T02:05:40;98233.16;;;13.00;100.00
1207;BME280;593;53.184;8.216;2023-03-14T02:08:09;98235.13;;;13.00;100.00
1207;BME280;593;53.184;8.216;2023-03-14T02:10:41;98242.44;;;12.96;100.00
1207;BME280;593;53.184;8.216;2023-03-14T02:13:06;98230.00;;;12.98;100.00
1207;BME280;593;53.184;8.216;2023-03-14T02:15:33;98221.78;;;12.95;100.00
1207;BME280;593;53.184;8.216;2023-03-14T02:17:59;98236.91;;;12.92;100.00
1207;BME280;593;53.184;8.216;2023-03-14T02:22:50;98247.31;;;13.06;100.00
1207;BME280;593;53.184;8.216;2023-03-14T02:25:39;98245.84;;;13.08;100.00
1207;BME280;593;53.184;8.216;2023-03-14T02:28:06;98234.13;;;13.08;100.00
1207;BME280;593;53.184;8.216;2023-03-14T02:30:32;98237.31;;;13.10;100.00
1207;BME280;593;53.184;8.216;2023-03-14T02:33:05;98241.00;;;13.02;100.00
1207;BME280;593;53.184;8.216;2023-03-14T02:35:40;98258.94;;;13.03;100.00
1207;BME280;593;53.184;8.216;2023-03-14T02:38:33;98302.19;;;13.01;100.00
1207;BME280;593;53.184;8.216;2023-03-14T02:41:01;98288.97;;;13.03;100.00
1207;BME280;593;53.184;8.216;2023-03-14T02:43:27;98291.00;;;13.06;100.00
1207;BME280;593;53.184;8.216;2023-03-14T02:45:52;98294.28;;;12.96;100.00
1207;BME280;593;53.184;8.216;2023-03-14T02:48:27;98285.13;;;12.88;100.00
1207;BME280;593;53.184;8.216;2023-03-14T02:50:56;98286.63;;;12.85;100.00
1207;BME280;593;53.184;8.216;2023-03-14T02:53:25;98291.66;;;12.83;100.00
1207;BME280;593;53.184;8.216;2023-03-14T02:55:52;98287.28;;;12.79;100.00
1207;BME280;593;53.184;8.216;2023-03-14T02:58:18;98287.00;;;12.84;100.00
1207;BME280;593;53.184;8.216;2023-03-14T03:00:44;98277.44;;;12.74;100.00
1207;BME280;593;53.184;8.216;2023-03-14T03:03:09;98290.28;;;12.74;100.00
1207;BME280;593;53.184;8.216;2023-03-14T03:05:35;98285.00;;;12.65;100.00
1207;BME280;593;53.184;8.216;2023-03-14T03:08:00;98307.69;;;12.85;100.00
1207;BME280;593;53.184;8.216;2023-03-14T03:10:26;98291.50;;;12.76;100.00
1207;BME280;593;53.184;8.216;2023-03-14T03:12:52;98290.41;;;12.62;100.00
1207;BME280;593;53.184;8.216;2023-03-14T03:15:18;98281.84;;;12.63;100.00
1207;BME280;593;53.184;8.216;2023-03-14T03:17:43;98274.81;;;12.62;100.00
1207;BME280;593;53.184;8.216;2023-03-14T03:20:09;98265.75;;;12.58;100.00
1207;BME280;593;53.184;8.216;2023-03-14T03:22:36;98270.34;;;12.54;100.00
1207;BME280;593;53.184;8.216;2023-03-14T03:25:05;98259.44;;;12.54;100.00
1207;BME280;593;53.184;8.216;2023-03-14T03:27:32;98262.88;;;12.51;100.00
1207;BME280;593;53.184;8.216;2023-03-14T03:29:58;98250.81;;;12.52;100.00
1207;BME280;593;53.184;8.216;2023-03-14T03:32:24;98246.25;;;12.56;100.00
1207;BME280;593;53.184;8.216;2023-03-14T03:34:50;98237.97;;;12.53;100.00
1207;BME280;593;53.184;8.216;2023-03-14T03:37:15;98248.59;;;12.58;100.00
1207;BME280;593;53.184;8.216;2023-03-14T03:39:41;98242.72;;;12.56;100.00
1207;BME280;593;53.184;8.216;2023-03-14T03:42:06;98250.03;;;12.52;100.00
1207;BME280;593;53.184;8.216;2023-03-14T03:44:31;98248.38;;;12.47;100.00
1207;BME280;593;53.184;8.216;2023-03-14T03:46:57;98247.56;;;12.47;100.00
1207;BME280;593;53.184;8.216;2023-03-14T03:49:22;98249.94;;;12.48;100.00
1207;BME280;593;53.184;8.216;2023-03-14T03:51:47;98248.44;;;12.51;100.00
1207;BME280;593;53.184;8.216;2023-03-14T03:54:13;98232.44;;;12.49;100.00
1207;BME280;593;53.184;8.216;2023-03-14T03:56:38;98237.91;;;12.49;100.00
1207;BME280;593;53.184;8.216;2023-03-14T03:59:03;98233.69;;;12.52;100.00
1207;BME280;593;53.184;8.216;2023-03-14T04:01:29;98238.75;;;12.53;100.00
1207;BME280;593;53.184;8.216;2023-03-14T04:03:54;98225.41;;;12.48;100.00
1207;BME280;593;53.184;8.216;2023-03-14T04:06:19;98235.00;;;12.42;100.00
1207;BME280;593;53.184;8.216;2023-03-14T04:08:45;98223.38;;;12.45;100.00
1207;BME280;593;53.184;8.216;2023-03-14T04:11:10;98233.84;;;12.43;100.00
1207;BME280;593;53.184;8.216;2023-03-14T04:13:36;98237.75;;;12.42;100.00
1207;BME280;593;53.184;8.216;2023-03-14T04:16:01;98239.72;;;12.45;100.00
1207;BME280;593;53.184;8.216;2023-03-14T04:18:27;98230.59;;;12.38;100.00
1207;BME280;593;53.184;8.216;2023-03-14T04:20:53;98232.28;;;12.42;100.00
1207;BME280;593;53.184;8.216;2023-03-14T04:23:20;98237.56;;;12.35;100.00
1207;BME280;593;53.184;8.216;2023-03-14T04:25:45;98230.09;;;12.32;100.00
1207;BME280;593;53.184;8.216;2023-03-14T04:28:10;98243.00;;;12.35;100.00
1207;BME280;593;53.184;8.216;2023-03-14T04:30:36;98239.13;;;12.36;100.00
1207;BME280;593;53.184;8.216;2023-03-14T04:33:01;98220.50;;;12.22;100.00
1207;BME280;593;53.184;8.216;2023-03-14T04:35:27;98238.53;;;12.27;100.00
1207;BME280;593;53.184;8.216;2023-03-14T04:37:52;98241.00;;;12.32;100.00
1207;BME280;593;53.184;8.216;2023-03-14T04:40:18;98233.16;;;12.31;100.00
1207;BME280;593;53.184;8.216;2023-03-14T04:42:44;98239.50;;;12.35;100.00
1207;BME280;593;53.184;8.216;2023-03-14T04:45:09;98233.53;;;12.29;100.00
1207;BME280;593;53.184;8.216;2023-03-14T04:47:35;98226.06;;;12.26;100.00
1207;BME280;593;53.184;8.216;2023-03-14T04:50:01;98233.78;;;12.24;100.00
1207;BME280;593;53.184;8.216;2023-03-14T04:52:26;98242.66;;;12.21;100.00
1207;BME280;593;53.184;8.216;2023-03-14T04:54:52;98236.09;;;12.22;100.00
1207;BME280;593;53.184;8.216;2023-03-14T04:57:18;98231.06;;;12.24;100.00
1207;BME280;593;53.184;8.216;2023-03-14T04:59:43;98231.06;;;12.24;100.00
1207;BME280;593;53.184;8.216;2023-03-14T05:02:08;98215.78;;;12.19;100.00
1207;BME280;593;53.184;8.216;2023-03-14T05:04:34;98215.84;;;12.23;100.00
1207;BME280;593;53.184;8.216;2023-03-14T05:07:00;98217.19;;;12.13;100.00
1207;BME280;593;53.184;8.216;2023-03-14T05:09:25;98224.13;;;12.11;100.00
1207;BME280;593;53.184;8.216;2023-03-14T05:11:51;98212.09;;;12.12;100.00
1207;BME280;593;53.184;8.216;2023-03-14T05:14:16;98204.88;;;12.04;100.00
1207;BME280;593;53.184;8.216;2023-03-14T05:16:42;98207.59;;;12.04;100.00
1207;BME280;593;53.184;8.216;2023-03-14T05:19:07;98204.53;;;12.05;100.00
1207;BME280;593;53.184;8.216;2023-03-14T05:21:33;98201.72;;;12.02;100.00
1207;BME280;593;53.184;8.216;2023-03-14T05:23:58;98210.88;;;12.09;100.00
1207;BME280;593;53.184;8.216;2023-03-14T05:26:24;98208.56;;;12.11;100.00
1207;BME280;593;53.184;8.216;2023-03-14T05:28:49;98201.19;;;12.12;100.00
1207;BME280;593;53.184;8.216;2023-03-14T05:31:14;98198.91;;;12.14;100.00
1207;BME280;593;53.184;8.216;2023-03-14T05:33:40;98200.31;;;12.08;100.00
1207;BME280;593;53.184;8.216;2023-03-14T05:36:05;98193.56;;;12.02;100.00
1207;BME280;593;53.184;8.216;2023-03-14T05:38:31;98190.19;;;12.08;100.00
1207;BME280;593;53.184;8.216;2023-03-14T05:40:56;98199.16;;;12.09;100.00
1207;BME280;593;53.184;8.216;2023-03-14T05:43:22;98213.66;;;12.13;100.00
1207;BME280;593;53.184;8.216;2023-03-14T05:45:47;98201.25;;;12.15;100.00
1207;BME280;593;53.184;8.216;2023-03-14T05:48:12;98208.56;;;12.11;100.00
1207;BME280;593;53.184;8.216;2023-03-14T05:50:38;98200.56;;;12.03;100.00
1207;BME280;593;53.184;8.216;2023-03-14T05:53:03;98206.66;;;12.12;100.00
1207;BME280;593;53.184;8.216;2023-03-14T05:55:28;98206.66;;;12.12;100.00
1207;BME280;593;53.184;8.216;2023-03-14T05:57:54;98196.44;;;12.09;100.00
1207;BME280;593;53.184;8.216;2023-03-14T06:00:20;98208.63;;;12.15;100.00
1207;BME280;593;53.184;8.216;2023-03-14T06:02:45;98195.22;;;12.22;100.00
1207;BME280;593;53.184;8.216;2023-03-14T06:05:11;98200.56;;;12.18;100.00
1207;BME280;593;53.184;8.216;2023-03-14T06:07:36;98205.22;;;12.18;100.00
1207;BME280;593;53.184;8.216;2023-03-14T06:10:02;98204.41;;;12.17;100.00
1207;BME280;593;53.184;8.216;2023-03-14T06:12:28;98190.28;;;12.12;100.00
1207;BME280;593;53.184;8.216;2023-03-14T06:14:53;98199.16;;;12.25;100.00
1207;BME280;593;53.184;8.216;2023-03-14T06:17:19;98195.28;;;12.26;100.00
1207;BME280;593;53.184;8.216;2023-03-14T06:19:44;98191.41;;;12.27;100.00
1207;BME280;593;53.184;8.216;2023-03-14T06:22:09;98193.72;;;12.25;100.00
1207;BME280;593;53.184;8.216;2023-03-14T06:24:35;98200.28;;;12.23;100.00
1207;BME280;593;53.184;8.216;2023-03-14T06:27:00;98196.19;;;12.14;100.00
1207;BME280;593;53.184;8.216;2023-03-14T06:29:27;98203.66;;;12.17;100.00
1207;BME280;593;53.184;8.216;2023-03-14T06:31:52;98204.69;;;12.12;100.00
1207;BME280;593;53.184;8.216;2023-03-14T06:34:18;98197.25;;;12.09;100.00
1207;BME280;593;53.184;8.216;2023-03-14T06:36:43;98184.13;;;12.15;100.00
1207;BME280;593;53.184;8.216;2023-03-14T06:39:08;98195.75;;;12.12;100.00
1207;BME280;593;53.184;8.216;2023-03-14T06:41:34;98193.34;;;12.10;100.00
1207;BME280;593;53.184;8.216;2023-03-14T06:43:59;98197.75;;;12.15;100.00
1207;BME280;593;53.184;8.216;2023-03-14T06:46:24;98193.44;;;12.14;100.00
1207;BME280;593;53.184;8.216;2023-03-14T06:48:50;98179.81;;;12.14;100.00
1207;BME280;593;53.184;8.216;2023-03-14T06:51:15;98181.47;;;12.18;100.00
1207;BME280;593;53.184;8.216;2023-03-14T06:53:41;98192.47;;;12.22;100.00
1207;BME280;593;53.184;8.216;2023-03-14T06:56:07;98198.63;;;12.19;100.00
1207;BME280;593;53.184;8.216;2023-03-14T06:58:32;98208.47;;;12.23;100.00
1207;BME280;593;53.184;8.216;2023-03-14T07:00:57;98201.44;;;12.22;100.00
1207;BME280;593;53.184;8.216;2023-03-14T07:03:24;98203.81;;;12.24;100.00
1207;BME280;593;53.184;8.216;2023-03-14T07:05:49;98211.28;;;12.27;100.00
1207;BME280;593;53.184;8.216;2023-03-14T07:08:15;98200.38;;;12.27;100.00
1207;BME280;593;53.184;8.216;2023-03-14T07:10:40;98209.34;;;12.28;100.00
1207;BME280;593;53.184;8.216;2023-03-14T07:13:05;98201.88;;;12.25;100.00
1207;BME280;593;53.184;8.216;2023-03-14T07:15:31;98202.59;;;12.21;100.00
1207;BME280;593;53.184;8.216;2023-03-14T07:17:56;98212.53;;;12.30;100.00
1207;BME280;593;53.184;8.216;2023-03-14T07:20:22;98211.63;;;12.26;100.00
1207;BME280;593;53.184;8.216;2023-03-14T07:22:48;98213.22;;;12.27;100.00
1207;BME280;593;53.184;8.216;2023-03-14T07:25:17;98222.69;;;12.33;100.00
1207;BME280;593;53.184;8.216;2023-03-14T07:27:46;98222.78;;;12.36;100.00
1207;BME280;593;53.184;8.216;2023-03-14T07:30:13;98229.03;;;12.37;100.00
1207;BME280;593;53.184;8.216;2023-03-14T07:32:39;98210.28;;;12.35;100.00
1207;BME280;593;53.184;8.216;2023-03-14T07:35:05;98221.47;;;12.30;100.00
1207;BME280;593;53.184;8.216;2023-03-14T07:37:30;98209.16;;;12.20;100.00
1207;BME280;593;53.184;8.216;2023-03-14T07:39:55;98236.06;;;12.38;100.00
1207;BME280;593;53.184;8.216;2023-03-14T07:42:21;98235.72;;;12.39;100.00
1207;BME280;593;53.184;8.216;2023-03-14T07:44:46;98229.19;;;12.44;100.00
1207;BME280;593;53.184;8.216;2023-03-14T07:47:12;98232.63;;;12.41;100.00
1207;BME280;593;53.184;8.216;2023-03-14T07:49:37;98214.00;;;12.27;100.00
1207;BME280;593;53.184;8.216;2023-03-14T07:52:02;98248.91;;;12.37;100.00
1207;BME280;593;53.184;8.216;2023-03-14T07:54:28;98253.75;;;12.28;100.00
1207;BME280;593;53.184;8.216;2023-03-14T07:56:53;98255.22;;;12.26;100.00
1207;BME280;593;53.184;8.216;2023-03-14T07:59:19;98258.50;;;12.31;100.00
1207;BME280;593;53.184;8.216;2023-03-14T08:01:44;98252.25;;;12.31;100.00
1207;BME280;593;53.184;8.216;2023-03-14T08:04:10;98257.00;;;12.34;100.00
1207;BME280;593;53.184;8.216;2023-03-14T08:06:36;98252.59;;;12.29;100.00
1207;BME280;593;53.184;8.216;2023-03-14T08:09:03;98263.25;;;12.34;100.00
1207;BME280;593;53.184;8.216;2023-03-14T08:11:28;98264.03;;;12.35;100.00
1207;BME280;593;53.184;8.216;2023-03-14T08:13:54;98271.84;;;12.36;100.00
1207;BME280;593;53.184;8.216;2023-03-14T08:16:19;98264.75;;;12.32;100.00
1207;BME280;593;53.184;8.216;2023-03-14T08:18:45;98263.78;;;12.40;100.00
1207;BME280;593;53.184;8.216;2023-03-14T08:21:11;98287.50;;;12.39;100.00
1207;BME280;593;53.184;8.216;2023-03-14T08:23:36;98301.84;;;12.36;100.00
1207;BME280;593;53.184;8.216;2023-03-14T08:26:02;98306.22;;;12.41;100.00
1207;BME280;593;53.184;8.216;2023-03-14T08:28:27;98312.31;;;12.34;100.00
1207;BME280;593;53.184;8.216;2023-03-14T08:30:58;98396.88;;;12.38;100.00
1207;BME280;593;53.184;8.216;2023-03-14T08:33:24;98398.84;;;12.37;100.00
1207;BME280;593;53.184;8.216;2023-03-14T08:35:52;98409.03;;;12.25;100.00
1207;BME280;593;53.184;8.216;2023-03-14T08:38:18;98419.31;;;12.31;100.00
1207;BME280;593;53.184;8.216;2023-03-14T08:40:46;98430.34;;;12.22;100.00
1207;BME280;593;53.184;8.216;2023-03-14T08:43:13;98451.28;;;12.18;100.00
1207;BME280;593;53.184;8.216;2023-03-14T08:45:40;98445.88;;;12.06;100.00
1207;BME280;593;53.184;8.216;2023-03-14T08:48:05;98454.75;;;12.03;100.00
1207;BME280;593;53.184;8.216;2023-03-14T08:50:31;98461.38;;;11.90;100.00
1207;BME280;593;53.184;8.216;2023-03-14T08:52:56;98472.63;;;11.89;100.00
1207;BME280;593;53.184;8.216;2023-03-14T08:55:25;98497.72;;;11.82;100.00
1207;BME280;593;53.184;8.216;2023-03-14T08:57:52;98506.91;;;11.66;100.00
1207;BME280;593;53.184;8.216;2023-03-14T09:00:18;98524.38;;;11.65;100.00
1207;BME280;593;53.184;8.216;2023-03-14T09:02:43;98535.16;;;11.61;100.00
1207;BME280;593;53.184;8.216;2023-03-14T09:05:09;98556.59;;;11.50;100.00
1207;BME280;593;53.184;8.216;2023-03-14T09:07:35;98574.75;;;11.34;100.00
1207;BME280;593;53.184;8.216;2023-03-14T09:10:01;98575.19;;;11.24;100.00
1207;BME280;593;53.184;8.216;2023-03-14T09:12:26;98584.44;;;11.11;100.00
1207;BME280;593;53.184;8.216;2023-03-14T09:14:52;98587.59;;;11.01;100.00
1207;BME280;593;53.184;8.216;2023-03-14T09:17:17;98596.53;;;10.89;100.00
1207;BME280;593;53.184;8.216;2023-03-14T09:19:42;98605.97;;;10.71;100.00
1207;BME280;593;53.184;8.216;2023-03-14T09:22:08;98627.56;;;10.68;100.00
1207;BME280;593;53.184;8.216;2023-03-14T09:24:33;98622.44;;;10.54;100.00
1207;BME280;593;53.184;8.216;2023-03-14T09:26:58;98621.03;;;10.48;100.00
1207;BME280;593;53.184;8.216;2023-03-14T09:29:24;98648.25;;;10.40;100.00
1207;BME280;593;53.184;8.216;2023-03-14T09:31:49;98643.69;;;10.32;100.00
1207;BME280;593;53.184;8.216;2023-03-14T09:34:15;98654.41;;;10.28;100.00
1207;BME280;593;53.184;8.216;2023-03-14T09:36:40;98665.63;;;10.26;100.00
1207;BME280;593;53.184;8.216;2023-03-14T09:39:06;98675.28;;;10.15;100.00
1207;BME280;593;53.184;8.216;2023-03-14T09:41:38;98682.19;;;10.04;100.00
1207;BME280;593;53.184;8.216;2023-03-14T09:44:13;98697.06;;;9.98;100.00
1207;BME280;593;53.184;8.216;2023-03-14T09:46:41;98699.31;;;9.96;100.00
1207;BME280;593;53.184;8.216;2023-03-14T09:49:19;98704.59;;;9.93;100.00
1207;BME280;593;53.184;8.216;2023-03-14T09:51:47;98730.00;;;9.88;100.00
1207;BME280;593;53.184;8.216;2023-03-14T09:54:42;98752.84;;;9.87;100.00
1207;BME280;593;53.184;8.216;2023-03-14T09:57:14;98746.19;;;9.76;100.00
1207;BME280;593;53.184;8.216;2023-03-14T09:59:43;98765.19;;;9.76;100.00
1207;BME280;593;53.184;8.216;2023-03-14T10:02:19;98778.59;;;9.81;100.00
1207;BME280;593;53.184;8.216;2023-03-14T10:04:46;98783.06;;;9.77;100.00
1207;BME280;593;53.184;8.216;2023-03-14T10:07:25;98782.44;;;9.72;100.00
1207;BME280;593;53.184;8.216;2023-03-14T10:09:52;98786.13;;;9.67;100.00
1207;BME280;593;53.184;8.216;2023-03-14T10:12:19;98789.31;;;9.60;100.00
1207;BME280;593;53.184;8.216;2023-03-14T10:14:50;98799.53;;;9.63;100.00
1207;BME280;593;53.184;8.216;2023-03-14T10:17:18;98806.13;;;9.54;100.00
1207;BME280;593;53.184;8.216;2023-03-14T10:19:58;98824.44;;;9.57;100.00
1207;BME280;593;53.184;8.216;2023-03-14T10:22:27;98837.06;;;9.53;100.00
1207;BME280;593;53.184;8.216;2023-03-14T10:24:56;98842.31;;;9.49;100.00
1207;BME280;593;53.184;8.216;2023-03-14T10:27:32;98857.84;;;9.49;100.00
1207;BME280;593;53.184;8.216;2023-03-14T10:30:04;98867.88;;;9.48;100.00
1207;BME280;593;53.184;8.216;2023-03-14T10:32:36;98862.16;;;9.41;100.00
1207;BME280;593;53.184;8.216;2023-03-14T10:37:56;98884.66;;;9.42;100.00
1207;BME280;593;53.184;8.216;2023-03-14T10:40:27;98888.31;;;9.46;100.00
1207;BME280;593;53.184;8.216;2023-03-14T10:42:53;98890.06;;;9.50;100.00
1207;BME280;593;53.184;8.216;2023-03-14T10:45:33;98894.38;;;9.51;100.00
1207;BME280;593;53.184;8.216;2023-03-14T10:50:58;98902.84;;;9.58;100.00
1207;BME280;593;53.184;8.216;2023-03-14T10:53:33;98905.09;;;9.56;100.00
1207;BME280;593;53.184;8.216;2023-03-14T10:56:02;98904.75;;;9.58;100.00
1207;BME280;593;53.184;8.216;2023-03-14T10:58:29;98910.50;;;9.65;100.00
1207;BME280;593;53.184;8.216;2023-03-14T11:01:17;98913.06;;;9.61;100.00
1207;BME280;593;53.184;8.216;2023-03-14T11:03:54;98920.25;;;9.66;100.00
1207;BME280;593;53.184;8.216;2023-03-14T11:06:31;98929.50;;;9.82;100.00
1207;BME280;593;53.184;8.216;2023-03-14T11:09:06;98939.25;;;9.83;100.00
1207;BME280;593;53.184;8.216;2023-03-14T11:11:32;98949.00;;;9.76;100.00
1207;BME280;593;53.184;8.216;2023-03-14T11:16:53;98954.09;;;9.86;100.00
1207;BME280;593;53.184;8.216;2023-03-14T11:19:41;98973.44;;;9.84;100.00
1207;BME280;593;53.184;8.216;2023-03-14T11:23:01;98970.06;;;9.87;100.00
1207;BME280;593;53.184;8.216;2023-03-14T11:28:05;98988.31;;;9.87;100.00
1207;BME280;593;53.184;8.216;2023-03-14T11:30:55;98997.22;;;9.87;100.00
1207;BME280;593;53.184;8.216;2023-03-14T11:33:29;99009.53;;;9.93;100.00
1207;BME280;593;53.184;8.216;2023-03-14T11:36:06;99008.25;;;9.91;100.00
1207;BME280;593;53.184;8.216;2023-03-14T11:38:46;99021.50;;;9.92;100.00
1207;BME280;593;53.184;8.216;2023-03-14T11:41:33;99034.47;;;10.04;100.00
1207;BME280;593;53.184;8.216;2023-03-14T11:44:04;99052.34;;;10.05;100.00
1207;BME280;593;53.184;8.216;2023-03-14T11:46:42;99054.94;;;10.01;100.00
1207;BME280;593;53.184;8.216;2023-03-14T11:51:39;99088.16;;;9.98;100.00
1207;BME280;593;53.184;8.216;2023-03-14T11:54:15;99078.91;;;9.99;100.00
1207;BME280;593;53.184;8.216;2023-03-14T11:56:53;99080.19;;;10.02;100.00
1207;BME280;593;53.184;8.216;2023-03-14T11:59:28;99091.19;;;9.97;100.00
1207;BME280;593;53.184;8.216;2023-03-14T12:02:03;99102.69;;;9.94;98.98
1207;BME280;593;53.184;8.216;2023-03-14T12:10:40;99144.22;;;10.03;98.33
1207;BME280;593;53.184;8.216;2023-03-14T12:13:12;99157.50;;;10.04;98.40
1207;BME280;593;53.184;8.216;2023-03-14T12:15:40;99165.00;;;9.99;93.59
1207;BME280;593;53.184;8.216;2023-03-14T12:21:10;99176.50;;;9.96;92.24
1207;BME280;593;53.184;8.216;2023-03-14T12:26:17;99194.53;;;9.92;88.81
1207;BME280;593;53.184;8.216;2023-03-14T12:28:52;99210.03;;;9.91;88.33
1207;BME280;593;53.184;8.216;2023-03-14T12:31:41;99219.28;;;9.90;86.37
1207;BME280;593;53.184;8.216;2023-03-14T12:39:23;99250.56;;;9.88;84.99
1207;BME280;593;53.184;8.216;2023-03-14T12:42:14;99247.84;;;9.88;83.38
1207;BME280;593;53.184;8.216;2023-03-14T12:44:48;99252.63;;;9.82;83.46
1207;BME280;593;53.184;8.216;2023-03-14T12:49:42;99268.88;;;9.74;81.41
1207;BME280;593;53.184;8.216;2023-03-14T12:52:27;99272.53;;;9.69;81.54
1207;BME280;593;53.184;8.216;2023-03-14T12:55:49;99282.13;;;9.75;82.28
1207;BME280;593;53.184;8.216;2023-03-14T12:57:57;99287.41;;;9.72;82.97
1207;BME280;593;53.184;8.216;2023-03-14T13:00:33;99286.09;;;9.69;81.66
1207;BME280;593;53.184;8.216;2023-03-14T13:06:01;99306.22;;;9.68;80.19
1207;BME280;593;53.184;8.216;2023-03-14T13:11:01;99302.31;;;9.60;76.25
1207;BME280;593;53.184;8.216;2023-03-14T13:13:27;99321.81;;;9.62;75.24
1207;BME280;593;53.184;8.216;2023-03-14T13:15:57;99338.91;;;9.63;76.41
1207;BME280;593;53.184;8.216;2023-03-14T13:18:35;99348.16;;;9.62;74.11
1207;BME280;593;53.184;8.216;2023-03-14T13:21:05;99361.06;;;9.56;71.63
1207;BME280;593;53.184;8.216;2023-03-14T13:23:33;99367.09;;;9.53;72.18
1207;BME280;593;53.184;8.216;2023-03-14T13:26:00;99374.94;;;9.55;74.37
1207;BME280;593;53.184;8.216;2023-03-14T13:28:27;99350.56;;;9.41;77.11
1207;BME280;593;53.184;8.216;2023-03-14T13:30:59;99383.06;;;9.55;78.27
1207;BME280;593;53.184;8.216;2023-03-14T13:33:25;99402.69;;;9.52;77.84
1207;BME280;593;53.184;8.216;2023-03-14T13:36:02;99405.72;;;9.50;76.37
1207;BME280;593;53.184;8.216;2023-03-14T13:38:31;99398.59;;;9.41;74.13
1207;BME280;593;53.184;8.216;2023-03-14T13:40:59;99413.16;;;9.45;74.68
1207;BME280;593;53.184;8.216;2023-03-14T13:43:41;99425.44;;;9.42;73.29
1207;BME280;593;53.184;8.216;2023-03-14T13:46:16;99419.50;;;9.40;73.18
1207;BME280;593;53.184;8.216;2023-03-14T13:48:51;99428.94;;;9.43;72.79
1207;BME280;593;53.184;8.216;2023-03-14T13:51:19;99432.78;;;9.42;72.01
1207;BME280;593;53.184;8.216;2023-03-14T13:53:52;99433.88;;;9.41;71.44
1207;BME280;593;53.184;8.216;2023-03-14T13:56:20;99437.41;;;9.41;70.65
1207;BME280;593;53.184;8.216;2023-03-14T13:58:46;99409.41;;;9.19;69.34
1207;BME280;593;53.184;8.216;2023-03-14T14:03:41;99465.16;;;9.38;67.18
1207;BME280;593;53.184;8.216;2023-03-14T14:06:16;99477.41;;;9.36;68.06
1207;BME280;593;53.184;8.216;2023-03-14T14:08:42;99487.75;;;9.34;68.00
1207;BME280;593;53.184;8.216;2023-03-14T14:11:16;99489.47;;;9.30;68.63
1207;BME280;593;53.184;8.216;2023-03-14T14:13:44;99490.28;;;9.30;69.81
1207;BME280;593;53.184;8.216;2023-03-14T14:16:10;99493.41;;;9.24;70.19
1207;BME280;593;53.184;8.216;2023-03-14T14:18:35;99515.19;;;9.32;69.86
1207;BME280;593;53.184;8.216;2023-03-14T14:21:02;99517.91;;;9.32;69.32